This is the latest recevied weather packets stored in our database for station/object CE4ERM-13. If no packets are shown the sender has not sent any weather packets the latest 1 day(s).
| Time | Temp. | Humidity | Pressure | Rain* | Wind** | Luminosity | Snow |
|---|---|---|---|---|---|---|---|
| 1777915671 | 28.33° C | 23% | 1017.8 hPa | - | - | - | - |
| 1777914469 | 28.89° C | 21% | 1016.7 hPa | - | - | - | - |
| 1777913868 | 29.44° C | 20% | 1015.8 hPa | - | - | - | - |
| 1777913267 | 28.33° C | 21% | 1016.1 hPa | - | - | - | - |
| 1777912667 | 28.89° C | 21% | 1014.4 hPa | - | - | - | - |
| 1777912066 | 28.89° C | 21% | 1017.6 hPa | - | - | - | - |
| 1777910865 | 28.89° C | 20% | 1018.7 hPa | - | - | - | - |
| 1777910460 | 28.33° C | 20% | 1017.5 hPa | - | - | - | - |
| 1777910429 | 21.67° C | 29% | 1018.2 hPa | - | - | - | - |
| 1777910339 | 28.33° C | 20% | 1017.5 hPa | - | - | - | - |
| 1777910265 | 28.33° C | 20% | 1017.5 hPa | - | - | - | - |
| 1777909064 | 28.89° C | 20% | 1017.3 hPa | - | - | - | - |
| 1777908464 | 27.78° C | 19% | 1018.4 hPa | - | - | - | - |
| 1777907863 | 27.22° C | 20% | 1017.8 hPa | - | - | - | - |
| 1777907262 | 27.22° C | 20% | 1018.8 hPa | - | - | - | - |
| 1777906662 | 27.22° C | 21% | 1018.4 hPa | - | - | - | - |
| 1777906136 | 26.11° C | 22% | 1017.1 hPa | - | - | - | - |
| 1777906062 | 26.11° C | 22% | 1017.1 hPa | - | - | - | - |
| 1777905461 | 26.11° C | 22% | 1017.9 hPa | - | - | - | - |
| 1777904395 | 24.44° C | 24% | 1018.1 hPa | - | - | - | - |
| 1777904259 | 24.44° C | 24% | 1018.1 hPa | - | - | - | - |
| 1777903186 | 23.89° C | 26% | 1018.9 hPa | - | - | - | - |
| 1777903058 | 23.89° C | 26% | 1018.9 hPa | - | - | - | - |
| 1777902583 | 23.89° C | 25% | 1017.9 hPa | - | - | - | - |
| 1777902458 | 23.89° C | 25% | 1017.9 hPa | - | - | - | - |
* Rain since midnight (hover to see other rain measurements)
** Current wind speed in m/s (hover to see current wind gust speed)